createdAt,value
2023-02-01T00:01:00.276Z,1.80
2023-02-01T00:03:27.443Z,1.67
2023-02-01T00:05:58.441Z,1.90
2023-02-01T00:08:25.064Z,1.53
2023-02-01T00:10:59.695Z,1.60
2023-02-01T00:13:26.225Z,1.80
2023-02-01T00:15:52.796Z,1.60
2023-02-01T00:18:19.336Z,1.80
2023-02-01T00:20:48.930Z,1.60
2023-02-01T00:23:15.478Z,1.73
2023-02-01T00:25:42.038Z,1.70
2023-02-01T00:28:08.627Z,1.70
2023-02-01T00:30:35.854Z,1.80
2023-02-01T00:33:02.429Z,1.80
2023-02-01T00:35:28.981Z,1.90
2023-02-01T00:37:55.485Z,1.80
2023-02-01T00:40:22.369Z,1.90
2023-02-01T00:42:49.055Z,1.70
2023-02-01T00:45:15.585Z,1.50
2023-02-01T00:47:42.105Z,2.10
2023-02-01T00:50:09.180Z,1.80
2023-02-01T00:52:35.739Z,1.60
2023-02-01T00:55:02.571Z,1.80
2023-02-01T00:57:29.112Z,1.87
2023-02-01T00:59:55.640Z,1.73
2023-02-01T01:02:22.307Z,1.77
2023-02-01T01:04:48.983Z,1.57
2023-02-01T01:07:15.582Z,1.70
2023-02-01T01:09:42.197Z,1.70
2023-02-01T01:12:08.802Z,1.77
2023-02-01T01:14:35.340Z,2.10
2023-02-01T01:17:01.863Z,1.93
2023-02-01T01:19:28.442Z,1.87
2023-02-01T01:21:54.999Z,1.87
2023-02-01T01:24:21.534Z,2.00
2023-02-01T01:26:48.110Z,1.80
2023-02-01T01:29:14.714Z,1.90
2023-02-01T01:31:41.222Z,1.80
2023-02-01T01:34:07.803Z,2.03
2023-02-01T01:36:34.438Z,1.60
2023-02-01T01:39:01.033Z,1.77
2023-02-01T01:41:34.188Z,1.70
2023-02-01T01:44:02.400Z,1.90
2023-02-01T01:46:38.771Z,1.70
2023-02-01T01:49:39.470Z,1.77
2023-02-01T01:52:06.120Z,1.70
2023-02-01T01:54:40.836Z,1.73
2023-02-01T01:57:09.809Z,1.63
2023-02-01T01:59:37.241Z,1.57
2023-02-01T02:02:04.542Z,1.80
2023-02-01T02:04:32.115Z,1.80
2023-02-01T02:07:01.892Z,1.90
2023-02-01T02:09:28.377Z,2.00
2023-02-01T02:11:54.914Z,2.00
2023-02-01T02:14:22.359Z,1.73
2023-02-01T02:17:01.950Z,1.80
2023-02-01T02:19:50.112Z,1.90
2023-02-01T02:23:07.878Z,1.80
2023-02-01T02:26:08.236Z,1.97
2023-02-01T02:29:13.414Z,2.00
2023-02-01T02:31:45.989Z,1.70
2023-02-01T02:34:30.203Z,1.77
2023-02-01T02:36:59.691Z,1.83
2023-02-01T02:39:35.994Z,1.63
2023-02-01T02:42:34.568Z,1.80
2023-02-01T02:45:40.096Z,1.70
2023-02-01T02:48:19.764Z,1.70
2023-02-01T02:51:24.357Z,1.90
2023-02-01T02:54:29.607Z,1.70
2023-02-01T02:57:15.370Z,1.70
2023-02-01T03:00:00.555Z,1.60
2023-02-01T03:02:46.221Z,1.73
2023-02-01T03:05:13.211Z,1.90
2023-02-01T03:07:45.763Z,1.80
2023-02-01T03:10:18.768Z,1.60
2023-02-01T03:12:57.251Z,1.80
2023-02-01T03:15:39.578Z,1.50
2023-02-01T03:18:12.335Z,1.90
2023-02-01T03:20:39.116Z,1.90
2023-02-01T03:23:07.569Z,2.00
2023-02-01T03:25:34.106Z,1.90
2023-02-01T03:28:09.766Z,1.77
2023-02-01T03:30:38.131Z,1.70
2023-02-01T03:33:12.402Z,1.90
2023-02-01T03:35:41.217Z,1.80
2023-02-01T03:38:19.223Z,1.67
2023-02-01T03:40:48.117Z,1.77
2023-02-01T03:43:16.049Z,1.60
2023-02-01T03:45:44.725Z,1.87
2023-02-01T03:48:11.698Z,1.80
2023-02-01T03:50:39.245Z,1.80
2023-02-01T03:53:10.459Z,1.50
2023-02-01T03:55:37.234Z,1.70
2023-02-01T03:58:19.514Z,1.90
2023-02-01T04:00:56.482Z,1.70
2023-02-01T04:03:23.078Z,1.70
2023-02-01T04:05:50.465Z,1.63
2023-02-01T04:08:17.008Z,1.80
2023-02-01T04:10:43.573Z,1.50
2023-02-01T04:13:10.095Z,1.60
2023-02-01T04:15:36.688Z,1.90
2023-02-01T04:18:03.275Z,1.73
2023-02-01T04:20:29.904Z,1.60
2023-02-01T04:22:56.400Z,1.47
2023-02-01T04:25:22.991Z,1.70
2023-02-01T04:27:49.578Z,1.53
2023-02-01T04:30:16.284Z,1.80
2023-02-01T04:32:42.883Z,1.57
2023-02-01T04:35:09.857Z,1.50
2023-02-01T04:37:36.397Z,1.50
2023-02-01T04:40:04.680Z,1.50
2023-02-01T04:42:31.338Z,1.47
2023-02-01T04:44:57.864Z,1.70
2023-02-01T04:47:24.365Z,1.70
2023-02-01T04:49:50.898Z,1.80
2023-02-01T04:52:17.417Z,1.43
2023-02-01T04:54:43.899Z,1.53
2023-02-01T04:57:10.497Z,1.47
2023-02-01T04:59:37.090Z,1.83
2023-02-01T05:02:03.611Z,1.50
2023-02-01T05:04:30.245Z,1.40
2023-02-01T05:06:56.867Z,1.60
2023-02-01T05:09:23.430Z,1.50
2023-02-01T05:12:08.559Z,1.53
2023-02-01T05:14:35.163Z,1.73
2023-02-01T05:17:01.730Z,1.80
2023-02-01T05:19:28.295Z,1.50
2023-02-01T05:21:56.979Z,1.60
2023-02-01T05:24:23.535Z,1.43
2023-02-01T05:26:50.166Z,1.50
2023-02-01T05:29:17.410Z,1.67
2023-02-01T05:31:45.965Z,1.40
2023-02-01T05:34:12.594Z,1.50
2023-02-01T05:36:39.165Z,1.70
2023-02-01T05:39:05.636Z,1.57
2023-02-01T05:41:32.290Z,1.50
2023-02-01T05:43:58.829Z,1.30
2023-02-01T05:46:25.356Z,1.50
2023-02-01T05:48:53.043Z,1.50
2023-02-01T05:51:19.611Z,1.43
2023-02-01T05:53:46.123Z,1.43
2023-02-01T05:56:12.685Z,1.47
2023-02-01T05:58:39.232Z,1.40
2023-02-01T06:01:05.787Z,1.60
2023-02-01T06:03:32.423Z,1.60
2023-02-01T06:05:59.027Z,1.90
2023-02-01T06:08:26.774Z,1.93
2023-02-01T06:10:59.407Z,1.73
2023-02-01T06:13:25.983Z,1.70
2023-02-01T06:15:52.586Z,1.67
2023-02-01T06:18:19.523Z,1.40
2023-02-01T06:20:46.056Z,1.60
2023-02-01T06:23:12.633Z,1.90
2023-02-01T06:25:39.263Z,1.50
2023-02-01T06:28:06.826Z,1.50
2023-02-01T06:30:33.469Z,1.67
2023-02-01T06:32:59.982Z,1.47
2023-02-01T06:35:27.430Z,1.40
2023-02-01T06:37:53.961Z,1.60
2023-02-01T06:40:20.579Z,1.40
2023-02-01T06:42:48.933Z,1.50
2023-02-01T06:45:15.510Z,1.40
2023-02-01T06:47:43.295Z,1.60
2023-02-01T06:50:10.369Z,1.77
2023-02-01T06:52:36.903Z,2.00
2023-02-01T06:55:03.545Z,2.17
2023-02-01T06:57:31.804Z,2.17
2023-02-01T06:59:59.445Z,2.00
2023-02-01T07:02:26.076Z,2.00
2023-02-01T07:04:52.643Z,1.90
2023-02-01T07:07:20.639Z,1.90
2023-02-01T07:09:47.145Z,1.70
2023-02-01T07:12:13.712Z,1.90
2023-02-01T07:14:40.205Z,1.80
2023-02-01T07:17:06.706Z,1.90
2023-02-01T07:19:33.229Z,1.73
2023-02-01T07:21:59.857Z,1.80
2023-02-01T07:24:26.497Z,1.70
2023-02-01T07:26:53.089Z,1.70
2023-02-01T07:29:20.020Z,1.60
2023-02-01T07:31:46.549Z,1.73
2023-02-01T07:34:13.105Z,1.50
2023-02-01T07:36:39.700Z,1.60
2023-02-01T07:39:06.339Z,1.60
2023-02-01T07:41:32.869Z,1.50
2023-02-01T07:43:59.679Z,1.30
2023-02-01T07:46:26.222Z,1.67
2023-02-01T07:48:52.746Z,1.30
2023-02-01T07:51:19.296Z,1.60
2023-02-01T07:53:45.955Z,1.53
2023-02-01T07:56:21.633Z,1.43
2023-02-01T07:58:51.643Z,1.40
2023-02-01T08:01:22.557Z,1.60
2023-02-01T08:03:49.957Z,1.43
2023-02-01T08:06:16.579Z,1.30
2023-02-01T08:08:45.990Z,1.33
2023-02-01T08:11:12.517Z,1.43
2023-02-01T08:13:39.173Z,1.50
2023-02-01T08:16:07.178Z,1.60
2023-02-01T08:18:34.006Z,1.40
2023-02-01T08:21:39.421Z,1.33
2023-02-01T08:24:06.982Z,1.33
2023-02-01T08:26:33.600Z,1.23
2023-02-01T08:29:01.214Z,1.27
2023-02-01T08:31:28.608Z,1.30
2023-02-01T08:33:56.463Z,1.30
2023-02-01T08:36:23.819Z,1.40
2023-02-01T08:38:50.388Z,1.30
2023-02-01T08:41:18.736Z,1.17
2023-02-01T08:43:45.325Z,1.40
2023-02-01T08:46:12.160Z,1.27
2023-02-01T08:48:38.822Z,1.10
2023-02-01T08:51:06.605Z,1.23
2023-02-01T08:53:33.222Z,1.13
2023-02-01T08:55:59.829Z,1.47
2023-02-01T08:58:26.402Z,1.30
2023-02-01T09:00:53.115Z,1.13
2023-02-01T09:03:19.824Z,1.30
2023-02-01T09:05:49.871Z,1.53
2023-02-01T09:08:16.769Z,1.30
2023-02-01T09:10:43.585Z,1.10
2023-02-01T09:13:10.215Z,1.30
2023-02-01T09:15:37.633Z,1.07
2023-02-01T09:18:04.341Z,1.10
2023-02-01T09:20:31.097Z,1.57
2023-02-01T09:22:57.625Z,1.30
2023-02-01T09:25:24.419Z,1.20
2023-02-01T09:27:51.052Z,1.40
2023-02-01T09:30:17.761Z,1.20
2023-02-01T09:32:44.275Z,1.30
2023-02-01T09:35:10.850Z,1.10
2023-02-01T09:37:38.590Z,1.27
2023-02-01T09:40:05.628Z,1.17
2023-02-01T09:42:50.885Z,1.20
2023-02-01T09:45:45.882Z,1.30
2023-02-01T09:48:17.787Z,1.07
2023-02-01T09:50:52.613Z,1.30
2023-02-01T09:53:35.198Z,1.10
2023-02-01T09:56:24.447Z,1.10
2023-02-01T09:59:00.082Z,1.30
2023-02-01T10:01:27.522Z,1.30
2023-02-01T10:04:02.755Z,1.30
2023-02-01T10:07:16.779Z,1.33
2023-02-01T10:09:48.806Z,1.40
2023-02-01T10:12:24.133Z,1.20
2023-02-01T10:15:00.205Z,1.20
2023-02-01T10:17:45.077Z,1.27
2023-02-01T10:20:46.877Z,1.20
2023-02-01T10:23:37.625Z,1.30
2023-02-01T10:26:14.089Z,1.33
2023-02-01T10:28:40.625Z,1.20
2023-02-01T10:31:07.439Z,1.30
2023-02-01T10:33:45.871Z,1.13
2023-02-01T10:36:37.287Z,1.13
2023-02-01T10:39:05.150Z,1.17
2023-02-01T10:41:34.124Z,1.20
2023-02-01T10:44:00.786Z,1.10
2023-02-01T10:46:27.500Z,1.30
2023-02-01T10:48:55.484Z,1.30
2023-02-01T10:51:31.950Z,1.47
2023-02-01T10:54:01.673Z,1.20
2023-02-01T10:56:28.791Z,1.07
2023-02-01T10:59:03.436Z,1.30
2023-02-01T11:01:34.716Z,1.40
2023-02-01T11:04:04.954Z,1.20
2023-02-01T11:06:36.963Z,1.20
2023-02-01T11:09:09.664Z,1.20
2023-02-01T11:11:48.533Z,1.20
2023-02-01T11:14:19.448Z,1.20
2023-02-01T11:16:50.920Z,1.10
2023-02-01T11:19:18.179Z,1.30
2023-02-01T11:21:45.865Z,1.10
2023-02-01T11:24:25.921Z,1.20
2023-02-01T11:26:58.167Z,1.10
2023-02-01T11:29:30.546Z,1.20
2023-02-01T11:32:00.518Z,1.40
2023-02-01T11:34:32.413Z,1.33
2023-02-01T11:37:00.845Z,1.20
2023-02-01T11:39:36.653Z,1.20
2023-02-01T11:42:16.946Z,1.20
2023-02-01T11:44:47.396Z,1.20
2023-02-01T11:47:32.440Z,1.20
2023-02-01T11:50:03.346Z,1.20
2023-02-01T11:53:00.727Z,1.50
2023-02-01T11:56:02.655Z,1.40
2023-02-01T11:58:50.645Z,1.20
2023-02-01T12:01:42.594Z,1.40
2023-02-01T12:04:21.285Z,1.30
2023-02-01T12:06:55.824Z,1.50
2023-02-01T12:09:29.518Z,1.40
2023-02-01T12:12:10.041Z,1.50
2023-02-01T12:15:01.426Z,1.40
2023-02-01T12:17:49.902Z,1.40
2023-02-01T12:20:44.320Z,1.60
2023-02-01T12:23:10.790Z,1.50
2023-02-01T12:26:22.526Z,1.47
2023-02-01T12:29:08.490Z,1.60
2023-02-01T12:31:50.748Z,1.30
2023-02-01T12:34:39.401Z,1.57
2023-02-01T12:37:09.900Z,1.77
2023-02-01T12:39:46.593Z,1.50
2023-02-01T12:42:27.930Z,1.60
2023-02-01T12:45:12.287Z,1.53
2023-02-01T12:48:01.867Z,1.60
2023-02-01T12:50:33.979Z,1.43
2023-02-01T12:53:42.967Z,1.50
2023-02-01T12:56:12.439Z,1.60
2023-02-01T12:58:45.794Z,2.03
2023-02-01T13:01:35.648Z,1.70
2023-02-01T13:04:02.124Z,1.60
2023-02-01T13:06:38.199Z,1.40
2023-02-01T13:09:06.592Z,2.10
2023-02-01T13:11:38.653Z,2.40
2023-02-01T13:14:21.930Z,2.20
2023-02-01T13:16:53.535Z,2.23
2023-02-01T13:19:34.739Z,2.10
2023-02-01T13:22:12.786Z,2.23
2023-02-01T13:25:11.586Z,1.90
2023-02-01T13:27:38.181Z,1.80
2023-02-01T13:30:13.684Z,2.10
2023-02-01T13:33:51.598Z,2.20
2023-02-01T13:35:33.735Z,2.20
2023-02-01T13:38:15.519Z,3.30
2023-02-01T13:40:45.392Z,3.23
2023-02-01T13:43:13.320Z,2.90
2023-02-01T13:45:45.255Z,2.97
2023-02-01T13:48:20.786Z,3.00
2023-02-01T13:50:51.201Z,2.83
2023-02-01T13:53:21.137Z,2.80
2023-02-01T13:55:58.071Z,2.80
2023-02-01T13:58:38.779Z,2.53
2023-02-01T14:01:23.734Z,2.60
2023-02-01T14:03:57.227Z,2.83
2023-02-01T14:06:27.529Z,2.67
2023-02-01T14:09:09.534Z,2.63
2023-02-01T14:11:51.925Z,2.60
2023-02-01T14:14:18.405Z,2.40
2023-02-01T14:17:05.443Z,2.60
2023-02-01T14:19:36.090Z,2.50
2023-02-01T14:22:25.155Z,2.40
2023-02-01T14:24:55.817Z,2.70
2023-02-01T14:27:24.443Z,3.20
2023-02-01T14:29:58.887Z,3.03
2023-02-01T14:32:29.226Z,3.23
2023-02-01T14:34:58.126Z,3.30
2023-02-01T14:37:26.011Z,3.27
2023-02-01T14:39:58.128Z,3.00
2023-02-01T14:42:33.166Z,3.03
2023-02-01T14:45:18.422Z,2.57
2023-02-01T14:47:45.437Z,2.97
2023-02-01T14:50:18.128Z,3.23
2023-02-01T14:53:07.312Z,2.90
2023-02-01T14:55:43.792Z,2.67
2023-02-01T14:58:34.582Z,3.00
2023-02-01T15:01:02.581Z,2.80
2023-02-01T15:03:41.562Z,2.83
2023-02-01T15:06:25.294Z,2.97
2023-02-01T15:08:55.685Z,2.60
2023-02-01T15:11:22.259Z,2.47
2023-02-01T15:13:54.808Z,2.53
2023-02-01T15:16:23.168Z,2.50
2023-02-01T15:18:49.873Z,2.43
2023-02-01T15:21:32.894Z,2.63
2023-02-01T15:24:13.663Z,2.40
2023-02-01T15:26:40.327Z,2.73
2023-02-01T15:29:09.793Z,2.43
2023-02-01T15:31:42.040Z,2.50
2023-02-01T15:34:08.915Z,2.23
2023-02-01T15:36:36.279Z,1.97
2023-02-01T15:39:24.160Z,2.43
2023-02-01T15:41:52.684Z,2.40
2023-02-01T15:44:28.140Z,2.33
2023-02-01T15:46:54.747Z,2.10
2023-02-01T15:49:33.023Z,2.10
2023-02-01T15:52:00.622Z,2.10
2023-02-01T15:54:39.264Z,2.17
2023-02-01T15:57:06.447Z,2.10
2023-02-01T15:59:43.354Z,2.30
2023-02-01T16:02:26.629Z,2.10
2023-02-01T16:04:54.973Z,2.20
2023-02-01T16:07:30.848Z,2.00
2023-02-01T16:10:07.946Z,2.20
2023-02-01T16:12:39.126Z,2.43
2023-02-01T16:15:06.164Z,1.90
2023-02-01T16:17:32.801Z,2.20
2023-02-01T16:19:59.391Z,2.30
2023-02-01T16:22:25.960Z,2.00
2023-02-01T16:24:52.464Z,2.30
2023-02-01T16:27:19.069Z,2.10
2023-02-01T16:29:45.609Z,2.23
2023-02-01T16:32:22.065Z,1.97
2023-02-01T16:34:48.591Z,2.20
2023-02-01T16:37:21.032Z,2.07
2023-02-01T16:39:47.574Z,2.10
2023-02-01T16:42:14.709Z,2.10
2023-02-01T16:44:41.346Z,2.13
2023-02-01T16:47:17.861Z,2.30
2023-02-01T16:49:44.577Z,2.07
2023-02-01T16:52:19.562Z,1.60
2023-02-01T16:54:46.124Z,1.87
2023-02-01T16:57:14.524Z,2.10
2023-02-01T16:59:41.757Z,2.20
2023-02-01T17:02:26.458Z,2.00
2023-02-01T17:04:53.101Z,2.20
2023-02-01T17:07:19.887Z,2.10
2023-02-01T17:09:47.290Z,2.00
2023-02-01T17:12:24.035Z,1.63
2023-02-01T17:14:51.096Z,2.00
2023-02-01T17:17:20.552Z,2.20
2023-02-01T17:19:54.225Z,2.00
2023-02-01T17:22:21.346Z,2.03
2023-02-01T17:24:49.121Z,2.20
2023-02-01T17:27:18.771Z,2.03
2023-02-01T17:29:47.027Z,2.10
2023-02-01T17:32:18.031Z,1.90
2023-02-01T17:34:45.073Z,2.00
2023-02-01T17:37:30.076Z,2.00
2023-02-01T17:39:56.744Z,1.83
2023-02-01T17:42:24.390Z,2.07
2023-02-01T17:45:02.598Z,1.77
2023-02-01T17:47:29.198Z,1.90
2023-02-01T17:49:56.965Z,2.20
2023-02-01T17:52:24.884Z,1.90
2023-02-01T17:54:54.075Z,2.00
2023-02-01T17:57:21.000Z,1.80
2023-02-01T17:59:47.841Z,2.27
2023-02-01T18:02:22.382Z,1.70
2023-02-01T18:04:49.608Z,2.13
2023-02-01T18:07:16.421Z,2.10
2023-02-01T18:09:42.930Z,1.87
2023-02-01T18:12:20.393Z,1.80
2023-02-01T18:14:47.017Z,1.70
2023-02-01T18:17:13.595Z,1.80
2023-02-01T18:19:40.354Z,1.90
2023-02-01T18:22:07.042Z,1.90
2023-02-01T18:24:34.849Z,1.93
2023-02-01T18:27:01.436Z,1.70
2023-02-01T18:29:28.037Z,1.80
2023-02-01T18:31:55.153Z,1.90
2023-02-01T18:34:22.610Z,2.10
2023-02-01T18:36:49.962Z,1.90
2023-02-01T18:39:17.126Z,2.00
2023-02-01T18:41:45.027Z,1.63
2023-02-01T18:44:15.514Z,2.07
2023-02-01T18:46:42.361Z,1.80
2023-02-01T18:49:08.967Z,1.80
2023-02-01T18:51:35.526Z,1.70
2023-02-01T18:54:02.238Z,1.90
2023-02-01T18:56:28.730Z,2.10
2023-02-01T18:58:55.514Z,1.90
2023-02-01T19:01:22.254Z,1.83
2023-02-01T19:03:55.699Z,1.90
2023-02-01T19:06:27.656Z,2.10
2023-02-01T19:08:56.142Z,1.80
2023-02-01T19:11:22.816Z,1.83
2023-02-01T19:13:50.384Z,1.47
2023-02-01T19:16:17.088Z,2.10
2023-02-01T19:18:43.624Z,1.80
2023-02-01T19:21:11.330Z,1.63
2023-02-01T19:23:41.443Z,1.63
2023-02-01T19:26:12.181Z,1.80
2023-02-01T19:28:38.677Z,1.70
2023-02-01T19:31:06.433Z,1.87
2023-02-01T19:33:33.316Z,1.80
2023-02-01T19:36:00.383Z,1.90
2023-02-01T19:38:26.958Z,1.77
2023-02-01T19:40:55.422Z,1.70
2023-02-01T19:43:22.107Z,1.90
2023-02-01T19:45:48.629Z,1.63
2023-02-01T19:48:15.819Z,1.60
2023-02-01T19:50:42.371Z,1.80
2023-02-01T19:53:08.975Z,1.90
2023-02-01T19:55:35.553Z,1.73
2023-02-01T19:58:02.514Z,2.03
2023-02-01T20:00:28.254Z,1.90
2023-02-01T20:02:54.866Z,1.70
2023-02-01T20:05:23.355Z,2.00
2023-02-01T20:07:50.430Z,1.83
2023-02-01T20:10:17.049Z,1.53
2023-02-01T20:12:47.199Z,2.13
2023-02-01T20:15:13.815Z,1.77
2023-02-01T20:17:40.344Z,1.90
2023-02-01T20:20:07.481Z,1.77
2023-02-01T20:22:34.188Z,1.80
2023-02-01T20:25:02.649Z,1.73
2023-02-01T20:27:30.070Z,1.70
2023-02-01T20:29:56.554Z,1.80
2023-02-01T20:32:24.095Z,1.60
2023-02-01T20:34:53.272Z,1.70
2023-02-01T20:37:20.640Z,1.50
2023-02-01T20:39:47.255Z,1.70
2023-02-01T20:42:13.832Z,1.70
2023-02-01T20:44:40.380Z,1.67
2023-02-01T20:47:06.963Z,1.90
2023-02-01T20:49:34.704Z,1.67
2023-02-01T20:52:01.309Z,1.73
2023-02-01T20:54:27.840Z,1.60
2023-02-01T20:56:54.491Z,1.57
2023-02-01T20:59:21.021Z,1.70
2023-02-01T21:01:53.396Z,1.70
2023-02-01T21:04:22.193Z,1.80
2023-02-01T21:06:49.100Z,1.60
2023-02-01T21:09:16.204Z,2.10
2023-02-01T21:11:44.069Z,1.60
2023-02-01T21:14:10.706Z,1.50
2023-02-01T21:16:37.370Z,1.70
2023-02-01T21:19:04.021Z,1.60
2023-02-01T21:21:30.538Z,1.53
2023-02-01T21:23:57.800Z,1.50
2023-02-01T21:26:25.473Z,1.40
2023-02-01T21:28:53.142Z,1.60
2023-02-01T21:31:22.369Z,1.50
2023-02-01T21:33:49.290Z,1.50
2023-02-01T21:36:19.466Z,1.20
2023-02-01T21:38:47.061Z,1.37
2023-02-01T21:41:39.721Z,1.60
2023-02-01T21:44:06.364Z,1.23
2023-02-01T21:46:33.059Z,1.50
2023-02-01T21:49:05.075Z,1.40
2023-02-01T21:51:35.082Z,1.43
2023-02-01T21:54:01.648Z,1.20
2023-02-01T21:56:28.221Z,1.20
2023-02-01T21:58:55.311Z,1.20
2023-02-01T22:01:21.975Z,1.30
2023-02-01T22:03:49.317Z,1.27
2023-02-01T22:06:45.933Z,1.30
2023-02-01T22:09:24.090Z,1.10
2023-02-01T22:11:51.330Z,1.33
2023-02-01T22:14:18.135Z,1.40
2023-02-01T22:16:44.836Z,1.43
2023-02-01T22:19:12.508Z,1.30
2023-02-01T22:21:41.980Z,1.30
2023-02-01T22:24:09.834Z,1.30
2023-02-01T22:26:36.563Z,1.20
2023-02-01T22:29:03.197Z,1.40
2023-02-01T22:31:29.821Z,1.30
2023-02-01T22:33:56.939Z,1.43
2023-02-01T22:36:25.120Z,1.20
2023-02-01T22:38:52.332Z,1.20
2023-02-01T22:41:19.452Z,1.50
2023-02-01T22:43:46.760Z,1.20
2023-02-01T22:46:18.507Z,1.30
2023-02-01T22:48:45.805Z,1.40
2023-02-01T22:51:18.272Z,1.50
2023-02-01T22:53:44.902Z,1.63
2023-02-01T22:56:12.478Z,1.20
2023-02-01T22:58:39.083Z,1.43
2023-02-01T23:01:09.592Z,1.30
2023-02-01T23:03:36.709Z,1.30
2023-02-01T23:06:04.229Z,1.30
2023-02-01T23:08:30.903Z,1.20
2023-02-01T23:10:59.057Z,1.60
2023-02-01T23:13:25.600Z,1.30
2023-02-01T23:15:52.178Z,1.50
2023-02-01T23:18:18.761Z,1.40
2023-02-01T23:20:45.312Z,1.43
2023-02-01T23:23:11.861Z,1.27
2023-02-01T23:25:38.397Z,1.30
2023-02-01T23:28:05.055Z,1.50
2023-02-01T23:30:31.624Z,1.50
2023-02-01T23:32:58.145Z,1.60
2023-02-01T23:35:25.001Z,1.70
2023-02-01T23:37:51.774Z,1.40
2023-02-01T23:40:18.537Z,1.40
2023-02-01T23:43:05.312Z,1.10
2023-02-01T23:45:31.821Z,1.50
2023-02-01T23:47:58.302Z,1.40
2023-02-01T23:50:24.917Z,1.50
2023-02-01T23:52:51.474Z,1.63
2023-02-01T23:55:18.047Z,1.50
2023-02-01T23:57:44.602Z,1.20
